This is the latest recevied weather packets stored in our database for station/object WX5RP. If no packets are shown the sender has not sent any weather packets the latest 10 day(s).
| Time | Temp. | Humidity | Pressure | Rain* | Wind** | Luminosity | Snow |
|---|---|---|---|---|---|---|---|
| 1787940015 | 22.22° C | 32% | 1018.2 hPa | 0 mm | - | 792 W/m² | - |
| 1787939415 | 21.67° C | 33% | 1019 hPa | 0 mm | - | 771 W/m² | - |
| 1787938818 | 20.56° C | 34% | 1019.3 hPa | 0 mm | - | 750 W/m² | - |
| 1787938217 | 20° C | 36% | 1019.3 hPa | 0 mm | - | 627 W/m² | - |
| 1787937617 | 19.44° C | 38% | 1019.6 hPa | 0 mm | - | 701 W/m² | - |
| 1787937018 | 18.89° C | 39% | 1019 hPa | 0 mm | - | 678 W/m² | - |
| 1787936417 | 17.78° C | 42% | 1018.8 hPa | 0 mm | - | 653 W/m² | - |
| 1787935817 | 17.22° C | 45% | 1019.3 hPa | 0 mm | - | 626 W/m² | - |
| 1787935217 | 16.67° C | 47% | 1019.7 hPa | 0 mm | - | 601 W/m² | - |
| 1787934617 | 16.11° C | 50% | 1019.4 hPa | 0 mm | - | 560 W/m² | - |
| 1787934016 | 15° C | 54% | 1019.7 hPa | 0 mm | - | 508 W/m² | - |
| 1787933416 | 13.89° C | 59% | 1019.6 hPa | 0 mm | - | 501 W/m² | - |
| 1787932817 | 12.78° C | 65% | 1019.3 hPa | 0 mm | - | 467 W/m² | - |
| 1787932216 | 11.67° C | 70% | 1019.7 hPa | 0 mm | - | 409 W/m² | - |
| 1787931616 | 11.11° C | 70% | 1020 hPa | 0 mm | - | 405 W/m² | - |
| 1787931019 | 10.56° C | 72% | 1019.8 hPa | 0 mm | - | 373 W/m² | - |
| 1787930416 | 9.44° C | 75% | 1020.1 hPa | 0 mm | - | 310 W/m² | - |
| 1787929816 | 8.33° C | 78% | 1019.6 hPa | 0 mm | - | 276 W/m² | - |
| 1787929217 | 7.22° C | 80% | 1019.6 hPa | 0 mm | - | 257 W/m² | - |
| 1787928617 | 6.11° C | 81% | 1019.7 hPa | 0 mm | - | 199 W/m² | - |
| 1787928016 | 5° C | 82% | 1020 hPa | 0 mm | - | 100 W/m² | - |
| 1787927416 | 5° C | 81% | 1020.2 hPa | 0 mm | - | 67 W/m² | - |
| 1787926816 | 4.44° C | 80% | 1020.5 hPa | 0 mm | - | 36 W/m² | - |
| 1787926216 | 4.44° C | 80% | 1019.5 hPa | 0 mm | - | 21 W/m² | - |
| 1787925616 | 4.44° C | 80% | 1019.5 hPa | 0 mm | - | 16 W/m² | - |
* Rain latest hour (hover to see other rain measurements)
** Current wind speed in m/s (hover to see current wind gust speed)